sensor_id;sensor_type;location;lat;lon;timestamp;pressure;altitude;pressure_sealevel;temperature;humidity
250;BME280;109;19.806;-70.704;2023-05-22T00:00:49;100957.38;;;27.03;58.97
250;BME280;109;19.806;-70.704;2023-05-22T00:03:17;100967.91;;;27.06;58.72
250;BME280;109;19.806;-70.704;2023-05-22T00:05:47;100977.78;;;27.06;58.47
250;BME280;109;19.806;-70.704;2023-05-22T00:08:14;100978.84;;;27.03;59.00
250;BME280;109;19.806;-70.704;2023-05-22T00:10:41;100980.06;;;26.98;59.25
250;BME280;109;19.806;-70.704;2023-05-22T00:13:07;100978.09;;;27.01;59.23
250;BME280;109;19.806;-70.704;2023-05-22T00:15:34;100988.31;;;26.95;59.49
250;BME280;109;19.806;-70.704;2023-05-22T00:18:00;101003.66;;;26.93;58.92
250;BME280;109;19.806;-70.704;2023-05-22T00:20:27;101022.00;;;26.84;59.39
250;BME280;109;19.806;-70.704;2023-05-22T00:22:53;101022.09;;;26.83;59.12
250;BME280;109;19.806;-70.704;2023-05-22T00:25:21;101033.97;;;26.79;59.01
250;BME280;109;19.806;-70.704;2023-05-22T00:27:48;101030.69;;;26.74;58.68
250;BME280;109;19.806;-70.704;2023-05-22T00:30:14;101034.25;;;26.74;59.25
250;BME280;109;19.806;-70.704;2023-05-22T00:32:41;101038.94;;;26.71;58.99
250;BME280;109;19.806;-70.704;2023-05-22T00:35:08;101032.53;;;26.73;59.18
250;BME280;109;19.806;-70.704;2023-05-22T00:37:35;101019.44;;;26.67;58.75
250;BME280;109;19.806;-70.704;2023-05-22T00:40:02;101018.56;;;26.67;58.74
250;BME280;109;19.806;-70.704;2023-05-22T00:42:29;101016.00;;;26.65;58.91
250;BME280;109;19.806;-70.704;2023-05-22T00:44:55;101022.50;;;26.61;59.46
250;BME280;109;19.806;-70.704;2023-05-22T00:47:28;101030.53;;;26.61;59.43
250;BME280;109;19.806;-70.704;2023-05-22T00:50:10;101031.31;;;26.63;59.52
250;BME280;109;19.806;-70.704;2023-05-22T00:52:41;101033.22;;;26.61;59.38
250;BME280;109;19.806;-70.704;2023-05-22T00:55:15;101035.84;;;26.63;58.85
250;BME280;109;19.806;-70.704;2023-05-22T00:57:42;101035.84;;;26.63;58.71
250;BME280;109;19.806;-70.704;2023-05-22T01:00:16;101035.91;;;26.61;58.92
250;BME280;109;19.806;-70.704;2023-05-22T01:02:44;101038.75;;;26.58;58.97
250;BME280;109;19.806;-70.704;2023-05-22T01:05:17;101037.91;;;26.58;58.97
250;BME280;109;19.806;-70.704;2023-05-22T01:07:44;101039.88;;;26.54;59.01
250;BME280;109;19.806;-70.704;2023-05-22T01:10:18;101041.69;;;26.54;59.21
250;BME280;109;19.806;-70.704;2023-05-22T01:12:56;101052.63;;;26.50;59.16
250;BME280;109;19.806;-70.704;2023-05-22T01:21:18;101074.94;;;26.35;59.04
250;BME280;109;19.806;-70.704;2023-05-22T01:24:39;101081.78;;;26.41;59.42
250;BME280;109;19.806;-70.704;2023-05-22T01:28:01;101091.19;;;26.32;59.30
250;BME280;109;19.806;-70.704;2023-05-22T01:30:47;101087.88;;;26.27;59.44
250;BME280;109;19.806;-70.704;2023-05-22T01:33:22;101087.69;;;26.14;59.51
250;BME280;109;19.806;-70.704;2023-05-22T01:35:53;101092.81;;;26.19;59.88
250;BME280;109;19.806;-70.704;2023-05-22T01:38:29;101089.91;;;26.24;59.73
250;BME280;109;19.806;-70.704;2023-05-22T01:40:58;101075.34;;;26.28;59.77
250;BME280;109;19.806;-70.704;2023-05-22T01:43:39;101071.09;;;26.24;59.62
250;BME280;109;19.806;-70.704;2023-05-22T01:46:20;101064.78;;;26.25;60.16
250;BME280;109;19.806;-70.704;2023-05-22T01:48:57;101058.47;;;26.26;60.08
250;BME280;109;19.806;-70.704;2023-05-22T01:52:09;101059.16;;;26.29;60.06
250;BME280;109;19.806;-70.704;2023-05-22T01:54:39;101059.22;;;26.28;60.49
250;BME280;109;19.806;-70.704;2023-05-22T01:57:30;101054.38;;;26.19;60.38
250;BME280;109;19.806;-70.704;2023-05-22T02:00:14;101039.41;;;26.14;60.64
250;BME280;109;19.806;-70.704;2023-05-22T02:03:01;101036.72;;;26.14;60.20
250;BME280;109;19.806;-70.704;2023-05-22T02:05:38;101030.69;;;26.11;59.90
250;BME280;109;19.806;-70.704;2023-05-22T02:08:06;101038.09;;;26.06;60.03
250;BME280;109;19.806;-70.704;2023-05-22T02:10:42;101049.94;;;26.02;60.75
250;BME280;109;19.806;-70.704;2023-05-22T02:13:09;101048.22;;;26.01;61.05
250;BME280;109;19.806;-70.704;2023-05-22T02:15:45;101045.28;;;26.05;60.54
250;BME280;109;19.806;-70.704;2023-05-22T02:18:11;101033.59;;;26.06;60.89
250;BME280;109;19.806;-70.704;2023-05-22T02:20:45;101035.09;;;26.12;60.31
250;BME280;109;19.806;-70.704;2023-05-22T02:23:12;101032.34;;;26.13;60.47
250;BME280;109;19.806;-70.704;2023-05-22T02:25:45;101026.78;;;26.01;60.13
250;BME280;109;19.806;-70.704;2023-05-22T02:28:12;101030.50;;;25.98;60.45
250;BME280;109;19.806;-70.704;2023-05-22T02:30:53;101022.53;;;25.97;61.04
250;BME280;109;19.806;-70.704;2023-05-22T02:33:26;101018.09;;;25.96;60.30
250;BME280;109;19.806;-70.704;2023-05-22T02:35:55;101018.81;;;25.99;60.39
250;BME280;109;19.806;-70.704;2023-05-22T02:38:28;101018.97;;;25.96;60.89
250;BME280;109;19.806;-70.704;2023-05-22T02:40:55;101010.75;;;25.99;61.13
250;BME280;109;19.806;-70.704;2023-05-22T02:43:28;101008.16;;;25.98;61.01
250;BME280;109;19.806;-70.704;2023-05-22T02:46:15;101006.59;;;25.94;60.79
250;BME280;109;19.806;-70.704;2023-05-22T02:48:48;101019.06;;;25.95;61.57
250;BME280;109;19.806;-70.704;2023-05-22T02:51:15;101018.97;;;25.96;61.28
250;BME280;109;19.806;-70.704;2023-05-22T02:53:48;101024.06;;;25.85;61.60
250;BME280;109;19.806;-70.704;2023-05-22T02:56:15;101032.09;;;25.85;61.08
250;BME280;109;19.806;-70.704;2023-05-22T02:58:48;101029.41;;;25.85;61.15
250;BME280;109;19.806;-70.704;2023-05-22T03:01:14;101033.84;;;25.86;61.05
250;BME280;109;19.806;-70.704;2023-05-22T03:03:47;101040.50;;;25.77;61.08
250;BME280;109;19.806;-70.704;2023-05-22T03:06:14;101028.06;;;25.76;61.25
250;BME280;109;19.806;-70.704;2023-05-22T03:08:47;101031.50;;;25.78;61.16
250;BME280;109;19.806;-70.704;2023-05-22T03:11:14;101038.09;;;25.73;61.27
250;BME280;109;19.806;-70.704;2023-05-22T03:13:47;101040.47;;;25.62;61.07
250;BME280;109;19.806;-70.704;2023-05-22T03:16:21;101032.09;;;25.68;60.96
250;BME280;109;19.806;-70.704;2023-05-22T03:19:11;101038.56;;;25.64;60.58
250;BME280;109;19.806;-70.704;2023-05-22T03:21:44;101032.53;;;25.60;60.35
250;BME280;109;19.806;-70.704;2023-05-22T03:24:11;101035.59;;;25.53;60.50
250;BME280;109;19.806;-70.704;2023-05-22T03:26:44;101031.09;;;25.53;60.81
250;BME280;109;19.806;-70.704;2023-05-22T03:29:17;101016.38;;;25.44;61.49
250;BME280;109;19.806;-70.704;2023-05-22T03:31:58;101012.84;;;25.44;60.86
250;BME280;109;19.806;-70.704;2023-05-22T03:34:31;101012.03;;;25.42;61.28
250;BME280;109;19.806;-70.704;2023-05-22T03:36:59;101012.19;;;25.39;61.48
250;BME280;109;19.806;-70.704;2023-05-22T03:39:32;101013.06;;;25.39;61.39
250;BME280;109;19.806;-70.704;2023-05-22T03:42:05;101009.34;;;25.42;61.36
250;BME280;109;19.806;-70.704;2023-05-22T03:44:45;101015.88;;;25.36;61.90
250;BME280;109;19.806;-70.704;2023-05-22T03:47:25;101009.59;;;25.37;62.07
250;BME280;109;19.806;-70.704;2023-05-22T03:49:51;101008.91;;;25.34;61.70
250;BME280;109;19.806;-70.704;2023-05-22T03:52:24;101004.56;;;25.31;61.62
250;BME280;109;19.806;-70.704;2023-05-22T03:54:51;101006.22;;;25.34;62.12
250;BME280;109;19.806;-70.704;2023-05-22T03:57:24;101000.06;;;25.32;62.07
250;BME280;109;19.806;-70.704;2023-05-22T03:59:51;101000.19;;;25.29;62.16
250;BME280;109;19.806;-70.704;2023-05-22T04:02:23;101001.09;;;25.29;61.75
250;BME280;109;19.806;-70.704;2023-05-22T04:04:51;101005.03;;;25.22;62.02
250;BME280;109;19.806;-70.704;2023-05-22T04:07:24;101000.69;;;25.20;62.17
250;BME280;109;19.806;-70.704;2023-05-22T04:09:51;101000.84;;;25.17;61.85
250;BME280;109;19.806;-70.704;2023-05-22T04:12:24;100987.66;;;25.12;62.04
250;BME280;109;19.806;-70.704;2023-05-22T04:14:51;100986.03;;;25.09;61.93
250;BME280;109;19.806;-70.704;2023-05-22T04:17:31;100985.56;;;25.01;62.19
250;BME280;109;19.806;-70.704;2023-05-22T04:20:07;100982.94;;;25.00;62.37
250;BME280;109;19.806;-70.704;2023-05-22T04:22:34;100988.47;;;24.97;62.30
250;BME280;109;19.806;-70.704;2023-05-22T04:25:08;100976.91;;;24.96;62.24
250;BME280;109;19.806;-70.704;2023-05-22T04:27:35;100975.00;;;24.98;62.14
250;BME280;109;19.806;-70.704;2023-05-22T04:30:09;100979.31;;;25.01;62.04
250;BME280;109;19.806;-70.704;2023-05-22T04:32:37;100968.63;;;25.01;61.82
250;BME280;109;19.806;-70.704;2023-05-22T04:35:10;100965.31;;;24.96;61.83
250;BME280;109;19.806;-70.704;2023-05-22T04:37:38;100966.19;;;24.96;62.47
250;BME280;109;19.806;-70.704;2023-05-22T04:40:17;100964.38;;;24.97;62.47
250;BME280;109;19.806;-70.704;2023-05-22T04:42:43;100959.09;;;24.95;62.28
250;BME280;109;19.806;-70.704;2023-05-22T04:45:17;100955.72;;;24.92;62.27
250;BME280;109;19.806;-70.704;2023-05-22T04:48:04;100956.00;;;24.86;62.68
250;BME280;109;19.806;-70.704;2023-05-22T04:50:37;100954.38;;;24.83;62.38
250;BME280;109;19.806;-70.704;2023-05-22T04:53:05;100960.69;;;24.82;62.78
250;BME280;109;19.806;-70.704;2023-05-22T04:55:37;100957.06;;;24.83;62.96
250;BME280;109;19.806;-70.704;2023-05-22T04:58:04;100955.25;;;24.84;63.09
250;BME280;109;19.806;-70.704;2023-05-22T05:00:37;100951.78;;;24.82;62.85
250;BME280;109;19.806;-70.704;2023-05-22T05:03:10;100956.47;;;24.77;63.03
250;BME280;109;19.806;-70.704;2023-05-22T05:05:43;100948.75;;;24.70;63.12
250;BME280;109;19.806;-70.704;2023-05-22T05:08:11;100948.59;;;24.73;62.97
250;BME280;109;19.806;-70.704;2023-05-22T05:10:44;100939.84;;;24.70;63.25
250;BME280;109;19.806;-70.704;2023-05-22T05:13:11;100939.06;;;24.68;63.05
250;BME280;109;19.806;-70.704;2023-05-22T05:15:44;100939.41;;;24.60;63.00
250;BME280;109;19.806;-70.704;2023-05-22T05:18:11;100935.19;;;24.56;63.24
250;BME280;109;19.806;-70.704;2023-05-22T05:20:44;100929.66;;;24.59;63.27
250;BME280;109;19.806;-70.704;2023-05-22T05:23:12;100935.94;;;24.58;62.95
250;BME280;109;19.806;-70.704;2023-05-22T05:25:46;100933.44;;;24.55;63.23
250;BME280;109;19.806;-70.704;2023-05-22T05:28:13;100944.09;;;24.57;63.44
250;BME280;109;19.806;-70.704;2023-05-22T05:30:47;100943.28;;;24.55;63.16
250;BME280;109;19.806;-70.704;2023-05-22T05:33:30;100932.59;;;24.55;62.93
250;BME280;109;19.806;-70.704;2023-05-22T05:36:07;100927.91;;;24.58;63.33
250;BME280;109;19.806;-70.704;2023-05-22T05:38:42;100928.78;;;24.59;63.26
250;BME280;109;19.806;-70.704;2023-05-22T05:41:08;100939.09;;;24.49;63.20
250;BME280;109;19.806;-70.704;2023-05-22T05:43:44;100933.75;;;24.49;63.36
250;BME280;109;19.806;-70.704;2023-05-22T05:46:11;100921.16;;;24.51;63.27
250;BME280;109;19.806;-70.704;2023-05-22T05:48:57;100926.50;;;24.51;63.42
250;BME280;109;19.806;-70.704;2023-05-22T05:51:31;100924.78;;;24.50;63.48
250;BME280;109;19.806;-70.704;2023-05-22T05:54:04;100925.56;;;24.52;63.74
250;BME280;109;19.806;-70.704;2023-05-22T05:56:38;100922.09;;;24.50;63.67
250;BME280;109;19.806;-70.704;2023-05-22T05:59:05;100928.16;;;24.54;63.70
250;BME280;109;19.806;-70.704;2023-05-22T06:02:08;100929.84;;;24.56;63.71
250;BME280;109;19.806;-70.704;2023-05-22T06:04:42;100935.47;;;24.50;63.75
250;BME280;109;19.806;-70.704;2023-05-22T06:07:20;100932.66;;;24.53;63.63
250;BME280;109;19.806;-70.704;2023-05-22T06:09:49;100919.50;;;24.49;63.81
250;BME280;109;19.806;-70.704;2023-05-22T06:12:39;100919.75;;;24.44;63.93
250;BME280;109;19.806;-70.704;2023-05-22T06:15:12;100919.38;;;24.33;63.97
250;BME280;109;19.806;-70.704;2023-05-22T06:17:39;100925.09;;;24.44;63.60
250;BME280;109;19.806;-70.704;2023-05-22T06:20:12;100924.22;;;24.44;63.33
250;BME280;109;19.806;-70.704;2023-05-22T06:22:41;100923.66;;;24.37;63.34
250;BME280;109;19.806;-70.704;2023-05-22T06:25:14;100914.84;;;24.35;63.44
250;BME280;109;19.806;-70.704;2023-05-22T06:27:41;100912.47;;;24.46;63.58
250;BME280;109;19.806;-70.704;2023-05-22T06:30:15;100908.19;;;24.44;63.38
250;BME280;109;19.806;-70.704;2023-05-22T06:32:42;100920.75;;;24.42;63.45
250;BME280;109;19.806;-70.704;2023-05-22T06:35:17;100913.97;;;24.34;63.57
250;BME280;109;19.806;-70.704;2023-05-22T06:37:44;100912.94;;;24.37;63.02
250;BME280;109;19.806;-70.704;2023-05-22T06:40:16;100916.44;;;24.39;62.92
250;BME280;109;19.806;-70.704;2023-05-22T06:42:48;100913.16;;;24.32;63.25
250;BME280;109;19.806;-70.704;2023-05-22T06:45:31;100909.88;;;24.27;63.41
250;BME280;109;19.806;-70.704;2023-05-22T06:48:42;100907.28;;;24.26;63.55
250;BME280;109;19.806;-70.704;2023-05-22T06:51:24;100908.94;;;24.28;63.72
250;BME280;109;19.806;-70.704;2023-05-22T06:54:03;100910.88;;;24.25;63.58
250;BME280;109;19.806;-70.704;2023-05-22T06:56:42;100910.50;;;24.14;64.06
250;BME280;109;19.806;-70.704;2023-05-22T06:59:16;100911.38;;;24.14;64.15
250;BME280;109;19.806;-70.704;2023-05-22T07:01:55;100904.38;;;24.12;64.05
250;BME280;109;19.806;-70.704;2023-05-22T07:04:55;100901.44;;;24.18;63.96
250;BME280;109;19.806;-70.704;2023-05-22T07:07:32;100904.56;;;24.07;63.85
250;BME280;109;19.806;-70.704;2023-05-22T07:10:06;100895.47;;;24.11;64.01
250;BME280;109;19.806;-70.704;2023-05-22T07:12:34;100897.28;;;24.11;63.93
250;BME280;109;19.806;-70.704;2023-05-22T07:15:08;100890.13;;;24.11;63.95
250;BME280;109;19.806;-70.704;2023-05-22T07:17:38;100894.47;;;24.14;64.14
250;BME280;109;19.806;-70.704;2023-05-22T07:20:12;100896.41;;;24.10;63.66
250;BME280;109;19.806;-70.704;2023-05-22T07:22:45;100892.19;;;24.06;63.93
250;BME280;109;19.806;-70.704;2023-05-22T07:25:18;100892.19;;;24.06;63.97
250;BME280;109;19.806;-70.704;2023-05-22T07:27:45;100895.41;;;24.13;63.92
250;BME280;109;19.806;-70.704;2023-05-22T07:30:21;100898.94;;;24.13;63.45
250;BME280;109;19.806;-70.704;2023-05-22T07:32:48;100895.63;;;24.08;63.47
250;BME280;109;19.806;-70.704;2023-05-22T07:35:21;100902.78;;;24.08;63.59
250;BME280;109;19.806;-70.704;2023-05-22T07:37:49;100901.13;;;24.05;63.76
250;BME280;109;19.806;-70.704;2023-05-22T07:40:22;100896.72;;;24.04;63.73
250;BME280;109;19.806;-70.704;2023-05-22T07:42:49;100900.28;;;24.04;63.88
250;BME280;109;19.806;-70.704;2023-05-22T07:45:22;100897.66;;;24.03;63.83
250;BME280;109;19.806;-70.704;2023-05-22T07:48:12;100906.91;;;23.96;64.17
250;BME280;109;19.806;-70.704;2023-05-22T07:50:53;100905.91;;;23.98;63.96
250;BME280;109;19.806;-70.704;2023-05-22T07:53:26;100901.50;;;23.97;64.02
250;BME280;109;19.806;-70.704;2023-05-22T07:55:56;100904.31;;;23.94;63.82
250;BME280;109;19.806;-70.704;2023-05-22T07:58:30;100907.91;;;23.93;63.85
250;BME280;109;19.806;-70.704;2023-05-22T08:00:59;100909.50;;;23.97;64.21
250;BME280;109;19.806;-70.704;2023-05-22T08:03:33;100918.47;;;23.96;64.03
250;BME280;109;19.806;-70.704;2023-05-22T08:06:01;100922.75;;;24.00;64.08
250;BME280;109;19.806;-70.704;2023-05-22T08:08:34;100928.38;;;23.94;63.66
250;BME280;109;19.806;-70.704;2023-05-22T08:11:01;100934.38;;;23.99;63.62
250;BME280;109;19.806;-70.704;2023-05-22T08:13:34;100939.59;;;24.02;63.32
250;BME280;109;19.806;-70.704;2023-05-22T08:16:03;100937.84;;;24.01;63.48
250;BME280;109;19.806;-70.704;2023-05-22T08:18:36;100947.00;;;23.96;63.64
250;BME280;109;19.806;-70.704;2023-05-22T08:21:03;100944.06;;;24.02;63.62
250;BME280;109;19.806;-70.704;2023-05-22T08:23:36;100945.66;;;24.06;63.29
250;BME280;109;19.806;-70.704;2023-05-22T08:26:11;100956.34;;;24.06;63.65
250;BME280;109;19.806;-70.704;2023-05-22T08:28:44;100953.88;;;24.01;63.65
250;BME280;109;19.806;-70.704;2023-05-22T08:31:11;100951.78;;;24.08;63.59
250;BME280;109;19.806;-70.704;2023-05-22T08:33:44;100949.09;;;24.08;63.60
250;BME280;109;19.806;-70.704;2023-05-22T08:36:11;100946.66;;;24.03;63.73
250;BME280;109;19.806;-70.704;2023-05-22T08:38:44;100950.41;;;23.99;63.65
250;BME280;109;19.806;-70.704;2023-05-22T08:41:11;100947.00;;;23.96;63.94
250;BME280;109;19.806;-70.704;2023-05-22T08:43:45;100950.44;;;24.18;63.63
250;BME280;109;19.806;-70.704;2023-05-22T08:46:12;100957.88;;;24.30;63.62
250;BME280;109;19.806;-70.704;2023-05-22T08:48:47;100955.75;;;24.37;63.13
250;BME280;109;19.806;-70.704;2023-05-22T08:51:28;100950.88;;;24.45;63.22
250;BME280;109;19.806;-70.704;2023-05-22T08:53:57;100949.19;;;24.44;63.17
250;BME280;109;19.806;-70.704;2023-05-22T08:56:33;100939.97;;;24.50;63.28
250;BME280;109;19.806;-70.704;2023-05-22T08:59:01;100942.41;;;24.54;62.89
250;BME280;109;19.806;-70.704;2023-05-22T09:01:36;100951.38;;;24.53;63.05
250;BME280;109;19.806;-70.704;2023-05-22T09:04:03;100955.72;;;24.56;63.04
250;BME280;109;19.806;-70.704;2023-05-22T09:06:37;100954.22;;;24.50;63.23
250;BME280;109;19.806;-70.704;2023-05-22T09:09:11;100951.75;;;24.46;63.45
250;BME280;109;19.806;-70.704;2023-05-22T09:11:44;100944.91;;;24.40;63.47
250;BME280;109;19.806;-70.704;2023-05-22T09:14:11;100944.03;;;24.39;63.57
250;BME280;109;19.806;-70.704;2023-05-22T09:16:51;100946.72;;;24.39;63.08
250;BME280;109;19.806;-70.704;2023-05-22T09:19:26;100947.94;;;24.32;63.10
250;BME280;109;19.806;-70.704;2023-05-22T09:22:01;100941.59;;;24.35;62.74
250;BME280;109;19.806;-70.704;2023-05-22T09:24:44;100943.63;;;24.30;62.67
250;BME280;109;19.806;-70.704;2023-05-22T09:27:22;100946.31;;;24.30;62.75
250;BME280;109;19.806;-70.704;2023-05-22T09:29:50;100933.06;;;24.27;62.92
250;BME280;109;19.806;-70.704;2023-05-22T09:32:23;100929.75;;;24.22;63.01
250;BME280;109;19.806;-70.704;2023-05-22T09:34:50;100930.34;;;24.28;63.03
250;BME280;109;19.806;-70.704;2023-05-22T09:37:27;100931.69;;;24.37;62.54
250;BME280;109;19.806;-70.704;2023-05-22T09:40:06;100930.59;;;24.41;62.42
250;BME280;109;19.806;-70.704;2023-05-22T09:42:34;100929.72;;;24.40;62.41
250;BME280;109;19.806;-70.704;2023-05-22T09:45:08;100928.66;;;24.45;62.44
250;BME280;109;19.806;-70.704;2023-05-22T09:47:54;100930.28;;;24.47;62.49
250;BME280;109;19.806;-70.704;2023-05-22T09:50:27;100939.97;;;24.50;62.59
250;BME280;109;19.806;-70.704;2023-05-22T09:52:54;100944.69;;;24.45;62.64
250;BME280;109;19.806;-70.704;2023-05-22T09:55:29;100947.38;;;24.45;62.62
250;BME280;109;19.806;-70.704;2023-05-22T09:57:59;100935.94;;;24.41;62.68
250;BME280;109;19.806;-70.704;2023-05-22T10:00:35;100941.59;;;24.35;63.01
250;BME280;109;19.806;-70.704;2023-05-22T10:03:08;100943.31;;;24.36;63.09
250;BME280;109;19.806;-70.704;2023-05-22T10:05:50;100939.63;;;24.38;63.04
250;BME280;109;19.806;-70.704;2023-05-22T10:08:26;100939.63;;;24.38;62.82
250;BME280;109;19.806;-70.704;2023-05-22T10:11:14;100957.09;;;24.28;63.34
250;BME280;109;19.806;-70.704;2023-05-22T10:13:49;100947.31;;;24.27;63.51
250;BME280;109;19.806;-70.704;2023-05-22T10:16:16;100945.88;;;24.20;63.66
250;BME280;109;19.806;-70.704;2023-05-22T10:18:49;100955.63;;;24.21;63.92
250;BME280;109;19.806;-70.704;2023-05-22T10:21:17;100950.28;;;24.21;63.93
250;BME280;109;19.806;-70.704;2023-05-22T10:23:50;100962.72;;;24.22;63.83
250;BME280;109;19.806;-70.704;2023-05-22T10:26:18;100964.25;;;24.28;63.84
250;BME280;109;19.806;-70.704;2023-05-22T10:31:45;100958.22;;;24.23;63.63
250;BME280;109;19.806;-70.704;2023-05-22T10:34:53;100958.75;;;24.31;63.74
250;BME280;109;19.806;-70.704;2023-05-22T10:38:15;100974.03;;;24.46;62.93
250;BME280;109;19.806;-70.704;2023-05-22T10:40:57;100968.56;;;24.66;62.61
250;BME280;109;19.806;-70.704;2023-05-22T10:43:24;100964.50;;;24.77;62.41
250;BME280;109;19.806;-70.704;2023-05-22T10:46:02;100973.59;;;24.72;62.06
250;BME280;109;19.806;-70.704;2023-05-22T10:48:36;100967.69;;;24.66;62.48
250;BME280;109;19.806;-70.704;2023-05-22T10:51:12;100971.69;;;24.93;62.18
250;BME280;109;19.806;-70.704;2023-05-22T10:53:39;100982.78;;;25.03;62.24
250;BME280;109;19.806;-70.704;2023-05-22T10:56:15;100978.63;;;25.15;61.84
250;BME280;109;19.806;-70.704;2023-05-22T10:58:54;100982.34;;;25.29;61.83
250;BME280;109;19.806;-70.704;2023-05-22T11:01:24;100989.56;;;25.44;61.72
250;BME280;109;19.806;-70.704;2023-05-22T11:03:58;100994.44;;;25.54;61.42
250;BME280;109;19.806;-70.704;2023-05-22T11:09:28;101008.59;;;25.73;60.62
250;BME280;109;19.806;-70.704;2023-05-22T11:15:08;101014.56;;;25.78;60.58
250;BME280;109;19.806;-70.704;2023-05-22T11:17:39;101004.34;;;26.02;60.43
250;BME280;109;19.806;-70.704;2023-05-22T11:22:50;100991.94;;;26.48;59.41
250;BME280;109;19.806;-70.704;2023-05-22T11:25:21;100986.88;;;26.58;58.75
250;BME280;109;19.806;-70.704;2023-05-22T11:27:48;100990.97;;;26.65;58.94
250;BME280;109;19.806;-70.704;2023-05-22T11:30:15;100988.53;;;26.76;58.82
250;BME280;109;19.806;-70.704;2023-05-22T11:32:43;100988.53;;;26.92;58.09
250;BME280;109;19.806;-70.704;2023-05-22T11:35:20;100983.63;;;26.98;57.94
250;BME280;109;19.806;-70.704;2023-05-22T11:37:49;100990.34;;;27.05;56.95
250;BME280;109;19.806;-70.704;2023-05-22T11:40:20;100999.53;;;27.17;56.31
250;BME280;109;19.806;-70.704;2023-05-22T11:42:47;101005.97;;;27.29;56.61
250;BME280;109;19.806;-70.704;2023-05-22T11:45:13;101009.75;;;27.40;55.86
250;BME280;109;19.806;-70.704;2023-05-22T11:47:40;101018.81;;;27.53;56.19
250;BME280;109;19.806;-70.704;2023-05-22T11:50:10;101019.09;;;27.63;55.48
250;BME280;109;19.806;-70.704;2023-05-22T11:52:39;101020.94;;;27.77;55.47
250;BME280;109;19.806;-70.704;2023-05-22T11:55:07;101014.97;;;27.86;54.90
250;BME280;109;19.806;-70.704;2023-05-22T11:57:34;101013.53;;;27.95;54.81
250;BME280;109;19.806;-70.704;2023-05-22T12:00:01;101014.13;;;28.14;54.26
250;BME280;109;19.806;-70.704;2023-05-22T12:02:37;101011.50;;;28.26;53.50
250;BME280;109;19.806;-70.704;2023-05-22T12:05:04;101004.16;;;28.43;53.49
250;BME280;109;19.806;-70.704;2023-05-22T12:07:31;101000.22;;;28.48;53.68
250;BME280;109;19.806;-70.704;2023-05-22T12:09:58;101007.41;;;28.21;52.73
250;BME280;109;19.806;-70.704;2023-05-22T12:12:25;101003.28;;;28.42;53.25
250;BME280;109;19.806;-70.704;2023-05-22T12:14:52;101003.03;;;28.47;54.52
250;BME280;109;19.806;-70.704;2023-05-22T12:17:18;101006.00;;;28.42;55.03
250;BME280;109;19.806;-70.704;2023-05-22T12:19:46;101005.59;;;28.48;55.26
250;BME280;109;19.806;-70.704;2023-05-22T12:22:12;101012.53;;;28.38;55.97
250;BME280;109;19.806;-70.704;2023-05-22T12:24:43;101008.44;;;28.33;56.37
250;BME280;109;19.806;-70.704;2023-05-22T12:27:13;101012.16;;;28.30;56.68
250;BME280;109;19.806;-70.704;2023-05-22T12:29:41;101007.19;;;28.24;56.65
250;BME280;109;19.806;-70.704;2023-05-22T12:32:09;101012.47;;;28.25;56.75
250;BME280;109;19.806;-70.704;2023-05-22T12:34:45;101003.28;;;28.01;56.54
250;BME280;109;19.806;-70.704;2023-05-22T12:37:22;101007.50;;;28.19;56.43
250;BME280;109;19.806;-70.704;2023-05-22T12:42:24;101011.28;;;28.44;54.66
250;BME280;109;19.806;-70.704;2023-05-22T12:44:55;101007.94;;;28.67;53.96
250;BME280;109;19.806;-70.704;2023-05-22T12:47:23;101021.88;;;29.01;53.18
250;BME280;109;19.806;-70.704;2023-05-22T12:49:50;101011.44;;;29.09;49.98
250;BME280;109;19.806;-70.704;2023-05-22T12:52:17;101014.81;;;29.12;50.54
250;BME280;109;19.806;-70.704;2023-05-22T12:54:43;101032.03;;;29.10;49.54
250;BME280;109;19.806;-70.704;2023-05-22T12:57:10;101031.53;;;29.30;49.95
250;BME280;109;19.806;-70.704;2023-05-22T12:59:36;101034.72;;;28.97;50.67
250;BME280;109;19.806;-70.704;2023-05-22T13:02:03;101038.03;;;28.74;52.01
250;BME280;109;19.806;-70.704;2023-05-22T13:04:30;101040.47;;;28.64;52.90
250;BME280;109;19.806;-70.704;2023-05-22T13:06:57;101038.84;;;28.88;53.25
250;BME280;109;19.806;-70.704;2023-05-22T13:09:23;101035.41;;;28.86;52.90
250;BME280;109;19.806;-70.704;2023-05-22T13:11:49;101041.94;;;28.82;51.94
250;BME280;109;19.806;-70.704;2023-05-22T13:14:16;101047.88;;;28.87;52.49
250;BME280;109;19.806;-70.704;2023-05-22T13:16:43;101050.91;;;29.10;53.34
250;BME280;109;19.806;-70.704;2023-05-22T13:19:09;101066.31;;;29.08;53.36
250;BME280;109;19.806;-70.704;2023-05-22T13:21:36;101069.75;;;28.56;54.91
250;BME280;109;19.806;-70.704;2023-05-22T13:24:02;101070.53;;;28.30;56.78
250;BME280;109;19.806;-70.704;2023-05-22T13:26:29;101063.63;;;28.11;56.47
250;BME280;109;19.806;-70.704;2023-05-22T13:28:55;101068.03;;;28.12;56.59
250;BME280;109;19.806;-70.704;2023-05-22T13:31:22;101074.38;;;28.11;57.25
250;BME280;109;19.806;-70.704;2023-05-22T13:33:48;101072.94;;;28.20;57.08
250;BME280;109;19.806;-70.704;2023-05-22T13:36:16;101085.03;;;28.55;56.54
250;BME280;109;19.806;-70.704;2023-05-22T13:38:43;101085.28;;;28.65;57.17
250;BME280;109;19.806;-70.704;2023-05-22T13:41:09;101102.31;;;27.95;58.58
250;BME280;109;19.806;-70.704;2023-05-22T13:43:36;101091.97;;;27.59;58.30
250;BME280;109;19.806;-70.704;2023-05-22T13:46:03;101102.94;;;27.55;58.06
250;BME280;109;19.806;-70.704;2023-05-22T13:48:29;101109.66;;;27.63;58.76
250;BME280;109;19.806;-70.704;2023-05-22T13:50:56;101124.47;;;27.84;58.25
250;BME280;109;19.806;-70.704;2023-05-22T13:53:22;101127.03;;;28.01;57.82
250;BME280;109;19.806;-70.704;2023-05-22T13:55:49;101134.00;;;27.89;56.62
250;BME280;109;19.806;-70.704;2023-05-22T13:58:15;101144.16;;;28.00;57.52